Time;durP1;ratioP1;P1;durP2;ratioP2;P2;SDS_P1;SDS_P2;PMS_P1;PMS_P2;Temp;Humidity;BMP_temperature;BMP_pressure;BME280_temperature;BME280_humidity;BME280_pressure;Samples;Min_cycle;Max_cycle;Signal;HPM_P1;HPM_P2
2021/03/13 00:00:40;;;;;;;12.07;5.03;;;;;;;1.72;69.01;96063.29;1745570;81;21141;-78
2021/03/13 00:03:09;;;;;;;9.65;4.90;;;;;;;1.71;68.99;96067.45;1748632;81;21102;-78
2021/03/13 00:05:39;;;;;;;7.50;4.35;;;;;;;1.70;69.01;96067.96;1746882;81;21556;-78
2021/03/13 00:08:08;;;;;;;8.53;5.03;;;;;;;1.71;69.01;96070.85;1715495;81;21230;-78
2021/03/13 00:10:38;;;;;;;7.75;3.98;;;;;;;1.68;68.94;96066.07;1730045;81;21107;-78
2021/03/13 00:13:07;;;;;;;8.38;3.90;;;;;;;1.72;68.87;96075.05;1731970;81;21172;-78
2021/03/13 00:15:35;;;;;;;11.00;4.05;;;;;;;1.81;68.74;96061.58;1733981;81;21149;-78
2021/03/13 00:18:04;;;;;;;10.05;4.40;;;;;;;1.84;68.55;96063.23;1711618;83;21555;-79
2021/03/13 00:20:34;;;;;;;8.98;4.17;;;;;;;1.82;68.55;96067.08;1716906;83;21521;-78
2021/03/13 00:23:03;;;;;;;8.53;3.95;;;;;;;1.78;68.49;96068.08;1731603;81;21152;-78
2021/03/13 00:25:31;;;;;;;8.28;4.10;;;;;;;1.77;68.44;96062.58;1725649;83;21102;-78
2021/03/13 00:27:59;;;;;;;7.72;4.10;;;;;;;1.74;68.42;96066.45;1719209;81;21551;-79
2021/03/13 00:30:33;;;;;;;8.65;3.80;;;;;;;1.74;68.26;96053.91;1729820;81;21524;-78
2021/03/13 00:33:11;;;;;;;5.92;3.30;;;;;;;1.74;68.22;96055.21;1713445;83;21491;-78
2021/03/13 00:35:40;;;;;;;5.75;3.12;;;;;;;1.74;68.14;96056.00;1728505;81;21114;-78
2021/03/13 00:38:08;;;;;;;9.13;3.80;;;;;;;1.85;67.95;96053.56;1735410;81;21542;-78
2021/03/13 00:40:38;;;;;;;4.65;1.82;;;;;;;1.93;67.61;96053.95;1731233;82;21140;-79
2021/03/13 00:43:08;;;;;;;7.45;3.35;;;;;;;2.06;66.79;96031.94;1732118;83;21135;-78
2021/03/13 00:45:38;;;;;;;6.95;3.70;;;;;;;2.27;66.72;96048.23;1717330;83;21127;-79
2021/03/13 00:48:08;;;;;;;6.75;3.35;;;;;;;2.29;66.50;96042.75;1730340;81;21118;-79
2021/03/13 00:50:38;;;;;;;9.40;3.60;;;;;;;2.29;66.10;96048.77;1728376;81;21510;-79
2021/03/13 00:53:06;;;;;;;4.97;2.80;;;;;;;2.32;66.10;96034.42;1738355;81;21267;-78
2021/03/13 00:55:34;;;;;;;7.37;3.65;;;;;;;2.29;65.83;96035.70;1728042;83;21484;-78
2021/03/13 00:58:01;;;;;;;8.98;3.70;;;;;;;2.32;65.92;96036.52;1737449;81;21140;-78
2021/03/13 01:00:28;;;;;;;6.87;4.00;;;;;;;2.27;65.96;96031.74;1672317;85;21488;-78
2021/03/13 01:02:56;;;;;;;6.30;3.20;;;;;;;2.20;65.96;96036.33;1672242;86;21153;-78
2021/03/13 01:05:23;;;;;;;9.08;4.00;;;;;;;2.14;66.03;96029.45;1666250;85;21137;-78
2021/03/13 01:07:50;;;;;;;6.87;3.47;;;;;;;2.07;66.07;96033.52;1661602;86;21122;-78
2021/03/13 01:10:25;;;;;;;7.12;3.52;;;;;;;2.02;66.11;96033.45;1662811;86;21101;-78
2021/03/13 01:12:54;;;;;;;7.05;3.30;;;;;;;1.95;66.16;96028.36;1668429;85;21172;-78
2021/03/13 01:15:24;;;;;;;8.18;3.33;;;;;;;1.91;66.22;96028.57;1662731;86;21165;-78
2021/03/13 01:17:51;;;;;;;7.08;3.67;;;;;;;1.90;66.29;96028.81;1708088;83;21519;-78
2021/03/13 01:20:20;;;;;;;5.55;2.95;;;;;;;1.85;66.34;96029.53;1702361;84;21699;-78
2021/03/13 01:22:48;;;;;;;3.95;2.45;;;;;;;1.82;66.28;96016.91;1702556;83;21160;-78
2021/03/13 01:25:16;;;;;;;6.53;3.80;;;;;;;1.92;66.11;96022.83;1709476;83;21285;-78
2021/03/13 01:27:44;;;;;;;10.23;3.75;;;;;;;2.01;66.04;96013.05;1705125;83;21173;-78
2021/03/13 01:30:17;;;;;;;5.67;3.47;;;;;;;2.05;65.97;96012.84;1680953;85;21483;-78
2021/03/13 01:32:44;;;;;;;5.55;2.87;;;;;;;2.05;65.86;96009.44;1683982;85;21192;-78
2021/03/13 01:35:12;;;;;;;8.35;4.15;;;;;;;2.06;65.72;96020.17;1675823;84;21553;-78
2021/03/13 01:37:39;;;;;;;6.53;3.42;;;;;;;2.06;65.68;96014.42;1681776;85;21131;-78
2021/03/13 01:40:10;;;;;;;11.60;4.17;;;;;;;2.10;65.65;96013.42;1672970;84;21152;-78
2021/03/13 01:42:39;;;;;;;6.35;3.50;;;;;;;2.09;65.59;96013.16;1681136;84;21116;-78
2021/03/13 01:45:09;;;;;;;6.78;3.55;;;;;;;2.08;65.52;96008.95;1693463;84;21591;-78
2021/03/13 01:47:37;;;;;;;8.60;3.52;;;;;;;2.11;65.51;96008.98;1682220;85;21144;-78
2021/03/13 01:50:08;;;;;;;6.95;3.47;;;;;;;2.12;65.36;96004.86;1677724;84;21543;-78
2021/03/13 01:52:35;;;;;;;6.53;3.05;;;;;;;2.16;65.22;96004.64;1686732;84;21188;-78
2021/03/13 01:55:12;;;;;;;5.47;3.33;;;;;;;2.17;65.00;96006.23;1653384;86;21162;-78
2021/03/13 01:57:40;;;;;;;7.78;3.95;;;;;;;2.16;65.02;96007.26;1646831;85;21114;-78
2021/03/13 02:00:16;;;;;;;7.72;3.35;;;;;;;2.16;65.10;96008.56;1646330;86;21526;-78
2021/03/13 02:02:44;;;;;;;5.12;2.15;;;;;;;2.15;65.08;96008.30;1687283;84;21182;-78
2021/03/13 02:05:24;;;;;;;7.37;3.70;;;;;;;2.13;64.96;96003.82;1690349;84;21140;-78
2021/03/13 02:08:22;;;;;;;7.37;3.72;;;;;;;2.11;65.09;95994.09;1705390;83;21139;-79
2021/03/13 02:11:23;;;;;;;5.40;3.37;;;;;;;2.07;65.14;95993.78;1685475;83;21511;-78
2021/03/13 02:14:20;;;;;;;6.70;3.20;;;;;;;2.04;65.14;95996.09;1683893;84;21503;-78
2021/03/13 02:17:14;;;;;;;6.72;3.10;;;;;;;1.97;65.31;95993.66;1689249;84;21134;-78
2021/03/13 02:20:22;;;;;;;11.20;4.28;;;;;;;1.93;65.29;95989.12;1691702;84;21113;-78
2021/03/13 02:22:52;;;;;;;7.12;2.22;;;;;;;1.90;65.37;95988.30;1700937;83;21123;-78
2021/03/13 02:25:49;;;;;;;7.28;3.33;;;;;;;1.88;65.52;95981.22;1699724;83;21100;-78
2021/03/13 02:28:47;;;;;;;8.08;3.35;;;;;;;1.90;65.44;95979.16;1698604;83;21159;-78
2021/03/13 02:31:16;;;;;;;5.87;2.50;;;;;;;1.91;65.42;95980.22;1692390;84;21178;-78
2021/03/13 02:33:47;;;;;;;4.53;2.90;;;;;;;1.91;65.38;95972.89;1710629;83;21294;-78
2021/03/13 02:36:17;;;;;;;6.35;2.75;;;;;;;1.93;65.43;95983.38;1703582;83;21301;-78
2021/03/13 02:38:49;;;;;;;;;;;;;;;1.97;65.21;95963.59;1707147;83;21294;-78
2021/03/13 02:41:20;;;;;;;6.67;2.70;;;;;;;2.03;65.13;95972.30;1699526;84;20391;-78
2021/03/13 02:43:52;;;;;;;8.80;3.42;;;;;;;2.07;65.03;95967.64;1696947;83;21128;-79
2021/03/13 02:46:23;;;;;;;4.22;2.35;;;;;;;2.09;64.86;95965.58;1702062;83;21555;-78
2021/03/13 02:48:51;;;;;;;6.65;3.15;;;;;;;2.11;64.76;95975.00;1707968;83;21271;-78
2021/03/13 02:51:21;;;;;;;6.15;3.20;;;;;;;2.13;64.54;95982.91;1711329;83;21340;-79
2021/03/13 02:53:51;;;;;;;8.25;3.22;;;;;;;2.18;64.45;95979.05;1741236;81;21127;-79
2021/03/13 02:56:20;;;;;;;4.42;2.65;;;;;;;2.25;64.30;95979.69;1743464;82;21171;-78
2021/03/13 02:58:51;;;;;;;4.87;2.30;;;;;;;2.27;64.14;95982.05;1731797;83;21139;-78
2021/03/13 03:01:22;;;;;;;6.62;3.45;;;;;;;2.29;63.86;95953.83;1728331;83;21162;-78
2021/03/13 03:03:52;;;;;;;5.67;2.90;;;;;;;2.27;64.03;95959.83;1729972;81;21505;-79
2021/03/13 03:06:21;;;;;;;7.05;3.20;;;;;;;2.28;64.00;95967.42;1722754;81;21171;-79
2021/03/13 03:08:49;;;;;;;4.30;1.98;;;;;;;2.34;63.92;95961.73;1731948;81;21554;-79
2021/03/13 03:11:22;;;;;;;5.70;2.95;;;;;;;2.32;63.77;95973.75;1726239;83;21178;-78
2021/03/13 03:13:51;;;;;;;5.03;2.45;;;;;;;2.37;63.67;95956.02;1732470;83;21126;-78
2021/03/13 03:16:21;;;;;;;5.35;3.15;;;;;;;2.42;63.20;95955.31;1732402;83;21518;-78
2021/03/13 03:18:52;;;;;;;3.33;1.35;;;;;;;2.47;63.43;95951.44;1728605;83;21657;-78
2021/03/13 03:21:20;;;;;;;4.53;2.50;;;;;;;2.50;63.07;95948.33;1725713;83;21139;-78
2021/03/13 03:23:49;;;;;;;5.15;2.20;;;;;;;2.56;62.94;95952.61;1732478;81;21161;-79
2021/03/13 03:26:18;;;;;;;7.22;2.30;;;;;;;2.60;62.82;95954.48;1724815;82;21222;-78
2021/03/13 03:28:47;;;;;;;3.92;2.12;;;;;;;2.60;62.69;95957.10;1732465;83;21095;-79
2021/03/13 03:31:15;;;;;;;2.85;1.47;;;;;;;2.71;62.32;95953.30;1736400;81;21143;-79
2021/03/13 03:33:43;;;;;;;5.28;2.72;;;;;;;2.82;61.97;95941.41;1728170;81;21456;-79
2021/03/13 03:36:11;;;;;;;5.62;2.08;;;;;;;2.90;61.87;95957.17;1721738;81;21132;-78
2021/03/13 03:38:39;;;;;;;4.50;2.33;;;;;;;2.84;61.77;95964.19;1731251;81;21155;-78
2021/03/13 03:41:06;;;;;;;7.53;2.35;;;;;;;2.90;61.90;95942.27;1731067;83;21195;-78
2021/03/13 03:43:44;;;;;;;4.17;2.10;;;;;;;2.91;61.60;95939.91;1728723;81;21501;-79
2021/03/13 03:46:13;;;;;;;4.83;2.33;;;;;;;2.94;61.28;95935.48;1731145;83;21152;-79
2021/03/13 03:48:42;;;;;;;6.60;2.72;;;;;;;2.92;61.17;95920.55;1724508;81;21137;-78
2021/03/13 03:51:15;;;;;;;4.45;2.40;;;;;;;2.92;61.62;95931.54;1708019;83;21160;-78
2021/03/13 03:53:46;;;;;;;6.97;2.65;;;;;;;2.85;61.75;95943.52;1725777;82;21112;-78
2021/03/13 03:56:14;;;;;;;3.65;2.12;;;;;;;2.79;62.00;95937.94;1727199;83;21075;-78
2021/03/13 03:58:49;;;;;;;3.58;2.30;;;;;;;2.76;62.09;95948.91;1727316;83;21154;-78
2021/03/13 04:01:18;;;;;;;4.08;2.05;;;;;;;2.73;62.38;95937.63;1725281;83;21174;-78
2021/03/13 04:03:50;;;;;;;4.42;2.20;;;;;;;2.78;62.25;95940.29;1727192;82;21110;-78
2021/03/13 04:06:19;;;;;;;3.55;1.77;;;;;;;2.79;62.34;95933.23;1711868;82;21191;-78
2021/03/13 04:08:54;;;;;;;3.27;2.02;;;;;;;2.82;62.10;95930.93;1723709;82;21155;-79
2021/03/13 04:11:23;;;;;;;4.72;2.12;;;;;;;2.88;62.00;95918.16;1716849;82;21136;-79
2021/03/13 04:13:54;;;;;;;3.33;2.10;;;;;;;2.88;61.96;95943.03;1726416;83;21144;-79
2021/03/13 04:16:22;;;;;;;5.37;2.25;;;;;;;2.88;61.98;95900.36;1726315;83;21119;-79
2021/03/13 04:18:49;;;;;;;5.75;2.60;;;;;;;2.86;62.04;95920.75;1728962;82;21115;-79
2021/03/13 04:21:18;;;;;;;4.50;2.25;;;;;;;2.86;62.16;95916.31;1727366;83;21186;-78
2021/03/13 04:23:48;;;;;;;3.00;2.00;;;;;;;2.85;61.92;95924.41;1727408;83;21134;-78
2021/03/13 04:26:21;;;;;;;5.50;2.55;;;;;;;2.86;62.07;95900.60;1728217;82;21112;-79
2021/03/13 04:28:50;;;;;;;5.87;1.98;;;;;;;2.89;61.99;95899.31;1728185;82;21490;-79
2021/03/13 04:31:23;;;;;;;2.42;1.40;;;;;;;2.89;61.89;95895.39;1728005;82;21536;-79
2021/03/13 04:33:51;;;;;;;4.35;1.90;;;;;;;2.87;61.80;95894.84;1726211;83;21128;-79
2021/03/13 04:36:19;;;;;;;4.08;2.50;;;;;;;2.88;61.95;95878.11;1711910;82;21132;-78
2021/03/13 04:38:47;;;;;;;3.17;1.10;;;;;;;2.84;61.92;95888.28;1729895;82;21127;-78
2021/03/13 04:41:15;;;;;;;2.98;1.95;;;;;;;2.84;61.89;95868.66;1727324;82;21582;-78
2021/03/13 04:43:43;;;;;;;2.87;1.80;;;;;;;2.88;61.98;95884.13;1727468;83;21128;-79
2021/03/13 04:46:13;;;;;;;3.45;1.90;;;;;;;2.90;62.08;95891.21;1727390;83;21149;-78
2021/03/13 04:48:40;;;;;;;3.05;1.85;;;;;;;2.96;61.99;95875.84;1727342;83;21192;-78
2021/03/13 04:51:08;;;;;;;2.90;1.50;;;;;;;2.98;62.06;95882.92;1706041;83;21107;-79
2021/03/13 04:53:36;;;;;;;3.58;1.72;;;;;;;3.03;61.88;95876.14;1723770;82;21150;-79
2021/03/13 04:56:04;;;;;;;3.62;1.70;;;;;;;3.12;61.72;95882.52;1734559;81;21107;-79
2021/03/13 04:58:31;;;;;;;2.02;1.07;;;;;;;3.25;61.80;95877.67;1697072;83;21496;-79
2021/03/13 05:00:58;;;;;;;2.98;1.12;;;;;;;3.30;61.50;95870.88;1739301;81;21590;-79
2021/03/13 05:03:25;;;;;;;2.90;1.67;;;;;;;3.41;61.22;95872.03;1745650;81;21119;-79
2021/03/13 05:05:52;;;;;;;4.55;1.82;;;;;;;3.51;61.18;95878.63;1734541;83;21095;-79
2021/03/13 05:08:19;;;;;;;1.47;0.98;;;;;;;3.57;61.25;95880.27;1745074;81;21168;-78
2021/03/13 05:10:46;;;;;;;5.80;1.50;;;;;;;3.70;60.49;95852.05;1741496;81;21506;-78
2021/03/13 05:13:13;;;;;;;6.20;1.70;;;;;;;3.98;59.52;95867.94;1733301;83;21147;-79
2021/03/13 05:15:40;;;;;;;4.72;1.80;;;;;;;4.18;59.07;95834.72;1744243;81;21168;-79
2021/03/13 05:18:08;;;;;;;2.30;1.15;;;;;;;4.17;59.19;95859.38;1726293;81;21121;-79
2021/03/13 05:20:35;;;;;;;3.15;1.35;;;;;;;4.32;58.81;95852.61;1730278;81;21177;-79
2021/03/13 05:23:02;;;;;;;3.25;1.50;;;;;;;4.52;58.17;95864.51;1734458;83;21097;-79
2021/03/13 05:25:29;;;;;;;4.10;1.82;;;;;;;4.65;57.42;95828.59;1748500;81;21135;-78
2021/03/13 05:27:56;;;;;;;3.37;1.98;;;;;;;4.87;57.31;95872.20;1730189;83;21229;-78
2021/03/13 05:30:24;;;;;;;4.20;1.52;;;;;;;5.14;56.68;95866.73;1722162;83;21475;-79
2021/03/13 05:32:51;;;;;;;3.35;1.85;;;;;;;5.33;55.94;95864.63;1732506;83;21544;-79
2021/03/13 05:35:18;;;;;;;4.53;1.27;;;;;;;5.39;55.13;95865.44;1730849;81;21829;-78
2021/03/13 05:37:45;;;;;;;4.55;1.95;;;;;;;5.31;55.45;95823.38;1734685;83;21160;-78
2021/03/13 05:40:13;;;;;;;2.05;1.40;;;;;;;5.22;55.46;95828.91;1732160;83;21475;-79
2021/03/13 05:42:41;;;;;;;3.37;1.42;;;;;;;5.23;55.06;95833.11;1734559;81;21146;-79
2021/03/13 05:45:10;;;;;;;4.67;1.95;;;;;;;5.13;55.53;95848.87;1734615;83;21146;-79
2021/03/13 05:47:40;;;;;;;2.75;1.47;;;;;;;5.03;55.77;95840.44;1734538;83;21126;-79
2021/03/13 05:50:14;;;;;;;4.65;2.10;;;;;;;5.13;55.62;95819.17;1734717;83;21184;-79
2021/03/13 05:52:52;;;;;;;3.37;1.77;;;;;;;5.36;55.88;95840.47;1715118;83;21201;-79
2021/03/13 05:55:21;;;;;;;3.12;1.92;;;;;;;5.80;55.29;95828.05;1742430;81;21142;-79
2021/03/13 05:57:53;;;;;;;3.70;2.17;;;;;;;6.14;54.31;95834.81;1680056;85;21163;-79
2021/03/13 06:00:22;;;;;;;3.85;1.70;;;;;;;6.16;53.89;95836.65;1680058;85;21155;-79
2021/03/13 06:02:51;;;;;;;3.47;2.20;;;;;;;6.37;53.07;95833.95;1670177;85;21176;-79
2021/03/13 06:05:18;;;;;;;4.50;2.05;;;;;;;6.31;52.67;95822.64;1684837;84;21154;-79
2021/03/13 06:07:47;;;;;;;5.17;2.22;;;;;;;6.29;53.07;95826.08;1681917;84;21143;-79
2021/03/13 06:10:15;;;;;;;3.98;2.25;;;;;;;6.42;52.51;95848.41;1698741;84;21166;-79
2021/03/13 06:12:43;;;;;;;4.83;2.42;;;;;;;6.45;52.80;95836.80;1692904;84;21146;-79
2021/03/13 06:15:11;;;;;;;4.25;1.60;;;;;;;6.55;53.20;95856.50;1679972;85;21503;-79
2021/03/13 06:17:59;;;;;;;5.37;2.02;;;;;;;6.22;52.57;95833.48;1709901;84;21505;-78
2021/03/13 06:20:36;;;;;;;5.28;2.10;;;;;;;6.47;53.77;95854.42;1693098;85;21160;-78
2021/03/13 06:23:15;;;;;;;5.33;2.10;;;;;;;7.28;52.54;95857.65;1688690;85;21456;-78
2021/03/13 06:25:44;;;;;;;6.62;2.35;;;;;;;8.19;51.82;95846.27;1678114;85;21139;-78
2021/03/13 06:28:20;;;;;;;4.78;2.20;;;;;;;8.97;51.47;95844.25;1691359;85;21148;-79
2021/03/13 06:30:51;;;;;;;3.65;2.12;;;;;;;9.52;50.14;95849.23;1693138;84;21156;-79
2021/03/13 06:33:29;;;;;;;3.87;1.98;;;;;;;9.98;49.05;95843.92;1693135;85;21242;-79
2021/03/13 06:36:01;;;;;;;4.25;2.20;;;;;;;10.31;46.40;95837.27;1682231;84;21168;-79
2021/03/13 06:38:36;;;;;;;5.10;2.40;;;;;;;10.48;46.62;95839.32;1685980;85;21166;-79
2021/03/13 06:41:23;;;;;;;4.92;2.30;;;;;;;10.76;45.47;95857.30;1692866;85;21144;-79
2021/03/13 06:43:56;;;;;;;4.72;2.60;;;;;;;10.93;44.36;95847.64;1693147;85;21124;-79
2021/03/13 06:46:33;;;;;;;5.40;2.40;;;;;;;11.05;44.55;95843.14;1693045;84;21145;-79
2021/03/13 06:49:00;;;;;;;4.90;2.33;;;;;;;11.29;44.31;95860.91;1693036;84;21149;-79
2021/03/13 06:51:37;;;;;;;4.70;2.47;;;;;;;11.28;43.01;95846.61;1693134;84;21544;-79
2021/03/13 06:54:14;;;;;;;4.95;2.60;;;;;;;10.90;43.55;95864.15;1683716;85;21151;-79
2021/03/13 06:56:57;;;;;;;4.83;2.30;;;;;;;10.30;44.37;95854.25;1674899;85;21267;-79
2021/03/13 06:59:30;;;;;;;5.22;2.50;;;;;;;10.73;43.82;95857.36;1667503;85;21524;-79
2021/03/13 07:02:10;;;;;;;5.22;2.37;;;;;;;11.13;44.00;95861.55;1674917;85;21327;-79
2021/03/13 07:04:44;;;;;;;4.22;2.22;;;;;;;11.03;42.99;95858.57;1675185;85;21148;-79
2021/03/13 07:07:16;;;;;;;5.47;2.17;;;;;;;11.23;43.96;95848.03;1674843;85;21262;-79
2021/03/13 07:09:53;;;;;;;4.42;1.52;;;;;;;11.28;44.27;95850.05;1673611;85;21151;-79
2021/03/13 07:12:42;;;;;;;4.55;2.02;;;;;;;11.56;41.96;95839.31;1674811;85;21178;-79
2021/03/13 07:15:26;;;;;;;2.95;1.80;;;;;;;11.85;43.26;95841.00;1648928;86;21136;-79
2021/03/13 07:17:59;;;;;;;3.08;1.15;;;;;;;12.15;43.17;95856.69;1675588;84;21201;-79
2021/03/13 07:20:31;;;;;;;3.70;1.75;;;;;;;11.63;40.25;95863.55;1674829;85;21178;-79
2021/03/13 07:23:03;;;;;;;4.22;1.90;;;;;;;10.77;43.42;95870.26;1684792;84;21136;-79
2021/03/13 07:25:32;;;;;;;4.30;2.10;;;;;;;10.48;44.13;95848.05;1671990;84;21155;-79
2021/03/13 07:28:03;;;;;;;4.33;1.90;;;;;;;10.65;44.29;95865.45;1730882;81;21495;-79
2021/03/13 07:30:34;;;;;;;3.47;1.77;;;;;;;10.52;44.34;95864.92;1669331;86;21136;-80
2021/03/13 07:33:06;;;;;;;;;;;;;;;9.79;45.21;95841.89;1672228;85;21137;-80
2021/03/13 07:35:37;;;;;;;2.95;1.50;;;;;;;9.35;46.23;95853.73;1665287;84;20146;-79
2021/03/13 07:38:08;;;;;;;3.40;1.22;;;;;;;9.26;46.53;95850.70;1664593;84;21655;-79
2021/03/13 07:40:46;;;;;;;1.32;0.93;;;;;;;8.91;47.51;95862.83;1668870;86;21343;-79
2021/03/13 07:43:15;;;;;;;3.22;1.50;;;;;;;8.71;48.05;95867.05;1665351;86;21147;-79
2021/03/13 07:45:44;;;;;;;3.65;1.77;;;;;;;8.61;49.09;95824.92;1674763;84;21274;-79
2021/03/13 07:48:11;;;;;;;2.85;1.65;;;;;;;8.65;49.03;95862.13;1647334;86;21167;-79
2021/03/13 07:50:39;;;;;;;3.47;1.52;;;;;;;8.80;49.37;95860.07;1677155;84;21189;-79
2021/03/13 07:53:10;;;;;;;5.55;2.30;;;;;;;8.66;48.86;95879.02;1677740;84;21128;-80
2021/03/13 07:55:38;;;;;;;4.57;1.60;;;;;;;8.83;49.82;95870.06;1679652;84;21226;-79
2021/03/13 07:58:09;;;;;;;2.85;1.30;;;;;;;9.06;49.15;95847.83;1679231;84;21309;-80
2021/03/13 08:00:48;;;;;;;2.62;1.92;;;;;;;8.93;48.85;95854.61;1737281;81;21542;-79
2021/03/13 08:03:37;;;;;;;3.17;1.47;;;;;;;8.81;49.41;95862.96;1647190;86;21213;-79
2021/03/13 08:08:52;;;;;;;3.90;2.15;;;;;;;9.22;50.08;95863.72;1754237;80;28685;-80
2021/03/13 08:11:22;;;;;;;5.80;2.15;;;;;;;9.31;49.55;95869.16;1771414;79;21112;-79
2021/03/13 08:14:00;;;;;;;2.52;1.60;;;;;;;9.52;48.84;95869.07;1763324;79;21159;-79
2021/03/13 08:16:44;;;;;;;3.20;1.95;;;;;;;9.83;48.51;95864.05;1746665;81;21099;-80
2021/03/13 08:19:38;;;;;;;2.87;1.70;;;;;;;10.20;48.26;95863.67;1729973;81;21104;-80
2021/03/13 08:22:22;;;;;;;5.00;1.50;;;;;;;10.96;47.95;95866.14;1724787;81;21151;-80
2021/03/13 08:24:54;;;;;;;3.60;1.52;;;;;;;10.88;46.43;95864.20;1688834;83;21158;-80
2021/03/13 08:27:42;;;;;;;3.83;1.55;;;;;;;10.05;46.88;95843.02;1750601;81;21140;-80
2021/03/13 08:30:25;;;;;;;2.52;1.20;;;;;;;9.85;48.52;95849.98;1748801;81;21165;-80
2021/03/13 08:33:06;;;;;;;2.30;1.42;;;;;;;9.83;48.88;95856.11;1733474;81;21158;-80
2021/03/13 08:35:44;;;;;;;3.10;1.92;;;;;;;10.02;48.64;95845.47;1733010;81;21101;-79
2021/03/13 08:38:13;;;;;;;3.37;1.72;;;;;;;9.77;49.45;95866.02;1700353;82;21155;-80
2021/03/13 08:40:50;;;;;;;4.80;2.25;;;;;;;9.95;49.48;95870.99;1743854;82;21482;-80
2021/03/13 08:43:40;;;;;;;3.17;1.22;;;;;;;10.37;49.25;95866.55;1744107;81;21124;-80
2021/03/13 08:49:15;;;;;;;4.45;1.85;;;;;;;10.22;49.04;95856.25;1813496;79;22888;-79
2021/03/13 08:51:43;;;;;;;2.30;1.40;;;;;;;10.11;49.10;95870.97;1775349;80;21162;-79
2021/03/13 08:54:10;;;;;;;2.77;1.15;;;;;;;9.52;48.99;95863.23;1763316;81;21129;-79
2021/03/13 08:56:41;;;;;;;2.52;1.55;;;;;;;8.98;50.21;95873.03;1760320;81;21233;-79
2021/03/13 08:59:18;;;;;;;4.15;1.80;;;;;;;8.96;51.68;95878.36;1748641;81;21245;-79
2021/03/13 09:02:08;;;;;;;3.35;1.80;;;;;;;9.31;51.22;95880.52;1732150;81;21522;-79
2021/03/13 09:04:38;;;;;;;3.30;1.30;;;;;;;9.39;50.68;95877.74;1758525;81;21250;-80
2021/03/13 09:07:08;;;;;;;1.50;0.95;;;;;;;9.32;51.98;95894.52;1759824;81;21155;-80
2021/03/13 09:09:38;;;;;;;5.12;1.70;;;;;;;9.26;51.25;95885.08;1760515;81;21119;-80
2021/03/13 09:12:10;;;;;;;2.35;1.52;;;;;;;9.08;51.39;95890.63;1749800;81;21269;-80
2021/03/13 09:14:44;;;;;;;2.55;1.32;;;;;;;9.00;51.47;95895.22;1755454;81;23679;-80
2021/03/13 09:17:14;;;;;;;4.22;1.95;;;;;;;8.77;51.61;95877.82;1746882;81;21602;-80
2021/03/13 09:19:43;;;;;;;3.62;1.20;;;;;;;8.40;52.64;95882.48;1758395;81;21265;-80
2021/03/13 09:22:26;;;;;;;2.60;1.60;;;;;;;8.39;53.26;95881.45;1759719;81;21495;-80
2021/03/13 09:25:00;;;;;;;3.67;1.20;;;;;;;8.25;53.45;95894.51;1761002;81;21578;-80
2021/03/13 09:27:36;;;;;;;0.93;0.75;;;;;;;8.04;53.67;95878.11;1754223;81;21361;-80
2021/03/13 09:30:02;;;;;;;2.52;1.00;;;;;;;8.00;54.41;95861.23;1767215;81;21616;-80
2021/03/13 09:32:29;;;;;;;4.47;1.90;;;;;;;7.99;53.49;95830.63;1758068;81;21131;-80
2021/03/13 09:34:56;;;;;;;3.22;2.20;;;;;;;7.97;53.97;95857.84;1757111;80;21120;-80
2021/03/13 09:37:28;;;;;;;3.25;1.90;;;;;;;8.04;54.09;95878.11;1730478;81;21139;-80
2021/03/13 09:40:03;;;;;;;3.50;2.00;;;;;;;8.16;54.10;95869.78;1752904;81;21281;-80
2021/03/13 09:42:32;;;;;;;2.42;1.02;;;;;;;8.17;54.73;95856.86;1747590;81;21286;-80
2021/03/13 09:45:07;;;;;;;3.42;0.95;;;;;;;8.13;54.11;95879.58;1760249;81;21506;-80
2021/03/13 09:47:44;;;;;;;2.70;1.37;;;;;;;8.17;54.51;95848.41;1756062;80;21237;-80
2021/03/13 09:50:16;;;;;;;3.45;1.62;;;;;;;8.32;54.51;95873.31;1766111;81;21225;-80
2021/03/13 09:52:46;;;;;;;2.37;1.10;;;;;;;8.24;55.16;95882.38;1766071;81;21131;-80
2021/03/13 09:55:18;;;;;;;3.20;1.45;;;;;;;8.33;53.56;95857.72;1765937;81;21127;-80
2021/03/13 09:57:50;;;;;;;2.98;1.80;;;;;;;8.52;55.36;95857.78;1765994;81;21257;-80
2021/03/13 10:00:25;;;;;;;3.65;1.90;;;;;;;8.83;54.67;95879.31;1765559;81;21534;-80
2021/03/13 10:02:55;;;;;;;2.80;1.30;;;;;;;9.09;54.01;95867.08;1765443;81;21122;-80
2021/03/13 10:05:31;;;;;;;1.05;0.78;;;;;;;8.93;53.73;95873.91;1765577;81;21518;-80
2021/03/13 10:08:08;;;;;;;1.27;0.93;;;;;;;8.90;53.57;95849.37;1765530;81;21126;-80
2021/03/13 10:10:36;;;;;;;1.95;1.07;;;;;;;8.88;52.99;95877.16;1756298;81;21126;-80
2021/03/13 10:13:06;;;;;;;3.08;1.17;;;;;;;8.94;53.22;95860.15;1765324;81;21522;-80
2021/03/13 10:15:36;;;;;;;5.17;1.67;;;;;;;9.13;55.20;95870.17;1765583;81;21115;-80
2021/03/13 10:18:19;;;;;;;3.95;1.22;;;;;;;9.34;53.65;95868.57;1765697;81;21122;-80
2021/03/13 10:20:53;;;;;;;4.22;1.87;;;;;;;9.14;53.21;95872.28;1765588;81;21303;-80
2021/03/13 10:23:38;;;;;;;4.83;1.70;;;;;;;9.21;52.87;95841.77;1764769;81;21107;-80
2021/03/13 10:26:15;;;;;;;3.15;1.52;;;;;;;9.41;52.95;95865.80;1763152;81;21464;-80
2021/03/13 10:28:52;;;;;;;3.37;1.47;;;;;;;9.55;52.69;95853.94;1752200;81;21112;-80
2021/03/13 10:31:23;;;;;;;5.50;2.25;;;;;;;9.77;53.39;95848.02;1762874;81;21155;-80
2021/03/13 10:33:53;;;;;;;3.67;1.35;;;;;;;9.87;51.70;95833.83;1761241;81;21127;-80
2021/03/13 10:36:43;;;;;;;4.85;2.40;;;;;;;9.83;52.34;95852.14;1747014;80;21139;-80
2021/03/13 10:39:10;;;;;;;2.55;1.07;;;;;;;9.73;52.22;95831.16;1748237;81;21482;-80
2021/03/13 10:41:43;;;;;;;4.22;1.40;;;;;;;9.47;52.31;95836.88;1765384;81;21111;-79
2021/03/13 10:44:16;;;;;;;2.77;1.22;;;;;;;9.22;51.71;95845.98;1764398;81;21146;-80
2021/03/13 10:46:43;;;;;;;4.67;2.20;;;;;;;9.06;52.01;95806.31;1765452;81;21084;-80
2021/03/13 10:49:14;;;;;;;1.98;1.27;;;;;;;8.86;51.77;95836.45;1760757;81;21243;-80
2021/03/13 10:51:45;;;;;;;;;;;;;;;8.86;52.84;95848.34;1735179;81;21155;-80
2021/03/13 10:54:28;;;;;;;2.70;0.80;;;;;;;9.00;53.26;95854.24;1727051;83;20167;-80
2021/03/13 10:56:55;;;;;;;3.12;1.90;;;;;;;9.18;52.71;95833.09;1696748;84;21128;-80
2021/03/13 10:59:34;;;;;;;1.45;0.98;;;;;;;9.00;52.42;95851.60;1720554;82;21118;-80
2021/03/13 11:02:02;;;;;;;5.45;1.62;;;;;;;8.77;51.92;95840.83;1713638;83;21097;-80
2021/03/13 11:04:29;;;;;;;1.52;0.90;;;;;;;8.61;52.97;95828.89;1696973;84;21524;-80
2021/03/13 11:06:59;;;;;;;2.00;1.15;;;;;;;8.53;53.47;95850.64;1712480;82;21411;-80
2021/03/13 11:09:28;;;;;;;1.42;1.20;;;;;;;8.55;53.43;95851.14;1692987;84;21538;-80
2021/03/13 11:11:55;;;;;;;2.12;1.20;;;;;;;8.78;53.87;95840.28;1714081;83;21465;-81
2021/03/13 11:14:22;;;;;;;2.40;1.42;;;;;;;8.99;53.03;95842.09;1693212;85;21442;-81
2021/03/13 11:16:51;;;;;;;2.27;0.82;;;;;;;8.99;53.37;95833.63;1703214;83;21612;-81
2021/03/13 11:19:19;;;;;;;1.65;0.90;;;;;;;8.89;52.86;95812.11;1721755;82;21563;-81
2021/03/13 11:21:46;;;;;;;3.08;1.32;;;;;;;9.11;52.31;95803.58;1700449;84;21147;-80
2021/03/13 11:24:13;;;;;;;4.75;1.15;;;;;;;9.29;53.66;95811.77;1730003;82;21217;-81
2021/03/13 11:26:40;;;;;;;2.15;1.12;;;;;;;9.14;51.41;95846.63;1696910;84;21154;-81
2021/03/13 11:29:07;;;;;;;3.35;1.05;;;;;;;9.03;52.03;95809.53;1711854;83;21152;-80
2021/03/13 11:31:35;;;;;;;1.52;0.90;;;;;;;8.80;51.94;95822.28;1721372;82;21138;-78
2021/03/13 11:34:02;;;;;;;1.45;1.10;;;;;;;8.97;52.79;95806.70;1700427;84;21112;-78
2021/03/13 11:36:29;;;;;;;2.08;1.25;;;;;;;8.92;51.81;95806.25;1711721;81;21280;-78
2021/03/13 11:38:56;;;;;;;1.42;1.17;;;;;;;8.88;52.08;95821.66;1695304;84;21157;-80
2021/03/13 11:41:24;;;;;;;2.65;1.12;;;;;;;9.03;52.98;95802.14;1709168;84;21162;-80
2021/03/13 11:43:51;;;;;;;1.65;1.27;;;;;;;9.11;51.56;95808.08;1710320;84;21156;-80
2021/03/13 11:46:19;;;;;;;2.85;1.40;;;;;;;9.14;51.76;95795.60;1713661;84;21288;-80
2021/03/13 11:48:46;;;;;;;3.40;1.55;;;;;;;9.14;51.17;95785.81;1728397;83;21467;-81
2021/03/13 11:51:14;;;;;;;2.98;1.52;;;;;;;9.27;51.48;95781.64;1690669;84;21180;-81
2021/03/13 11:53:41;;;;;;;2.35;1.42;;;;;;;9.56;52.26;95766.86;1727549;82;21465;-80
2021/03/13 11:56:09;;;;;;;2.00;1.25;;;;;;;9.53;50.06;95770.87;1718243;83;21110;-81
2021/03/13 11:58:36;;;;;;;0.80;0.65;;;;;;;9.60;50.07;95771.84;1726980;82;21172;-80
2021/03/13 12:01:04;;;;;;;1.87;1.10;;;;;;;9.65;50.36;95760.37;1717153;81;21518;-81
2021/03/13 12:03:31;;;;;;;1.70;0.98;;;;;;;9.47;49.95;95769.41;1708579;83;21173;-80
2021/03/13 12:05:58;;;;;;;2.55;1.10;;;;;;;9.48;50.60;95792.14;1732181;83;21512;-81
2021/03/13 12:08:25;;;;;;;1.25;0.57;;;;;;;9.55;50.33;95771.91;1697146;84;21487;-80